sensor_id;sensor_type;location;lat;lon;timestamp;P1;durP1;ratioP1;P2;durP2;ratioP2
74152;SDS011;62505;46.070;14.492;2023-06-26T00:00:08;11.63;;;7.13;;
74152;SDS011;62505;46.070;14.492;2023-06-26T00:02:36;9.05;;;6.85;;
74152;SDS011;62505;46.070;14.492;2023-06-26T00:05:03;9.65;;;6.57;;
74152;SDS011;62505;46.070;14.492;2023-06-26T00:07:31;9.80;;;6.60;;
74152;SDS011;62505;46.070;14.492;2023-06-26T00:10:00;8.32;;;6.57;;
74152;SDS011;62505;46.070;14.492;2023-06-26T00:12:27;7.93;;;6.47;;
74152;SDS011;62505;46.070;14.492;2023-06-26T00:14:54;7.60;;;6.20;;
74152;SDS011;62505;46.070;14.492;2023-06-26T00:17:22;11.40;;;6.93;;
74152;SDS011;62505;46.070;14.492;2023-06-26T00:19:50;9.00;;;7.57;;
74152;SDS011;62505;46.070;14.492;2023-06-26T00:22:17;9.75;;;7.00;;
74152;SDS011;62505;46.070;14.492;2023-06-26T00:24:44;7.75;;;6.47;;
74152;SDS011;62505;46.070;14.492;2023-06-26T00:27:11;9.80;;;7.15;;
74152;SDS011;62505;46.070;14.492;2023-06-26T00:29:37;9.77;;;6.82;;
74152;SDS011;62505;46.070;14.492;2023-06-26T00:32:05;9.77;;;7.35;;
74152;SDS011;62505;46.070;14.492;2023-06-26T00:34:34;9.10;;;6.97;;
74152;SDS011;62505;46.070;14.492;2023-06-26T00:37:01;7.72;;;6.55;;
74152;SDS011;62505;46.070;14.492;2023-06-26T00:39:29;9.10;;;6.88;;
74152;SDS011;62505;46.070;14.492;2023-06-26T00:41:55;8.75;;;7.30;;
74152;SDS011;62505;46.070;14.492;2023-06-26T00:44:22;10.18;;;7.43;;
74152;SDS011;62505;46.070;14.492;2023-06-26T00:46:49;11.63;;;7.18;;
74152;SDS011;62505;46.070;14.492;2023-06-26T00:49:17;9.77;;;7.32;;
74152;SDS011;62505;46.070;14.492;2023-06-26T00:51:45;9.27;;;6.90;;
74152;SDS011;62505;46.070;14.492;2023-06-26T00:54:13;13.02;;;7.18;;
74152;SDS011;62505;46.070;14.492;2023-06-26T00:56:45;8.38;;;6.40;;
74152;SDS011;62505;46.070;14.492;2023-06-26T00:59:12;10.63;;;7.72;;
74152;SDS011;62505;46.070;14.492;2023-06-26T01:01:39;8.45;;;6.47;;
74152;SDS011;62505;46.070;14.492;2023-06-26T01:04:06;8.85;;;7.10;;
74152;SDS011;62505;46.070;14.492;2023-06-26T01:06:33;9.88;;;6.85;;
74152;SDS011;62505;46.070;14.492;2023-06-26T01:09:03;8.23;;;6.43;;
74152;SDS011;62505;46.070;14.492;2023-06-26T01:11:30;9.73;;;7.28;;
74152;SDS011;62505;46.070;14.492;2023-06-26T01:13:56;10.30;;;7.63;;
74152;SDS011;62505;46.070;14.492;2023-06-26T01:16:27;10.55;;;6.95;;
74152;SDS011;62505;46.070;14.492;2023-06-26T01:18:56;9.50;;;6.63;;
74152;SDS011;62505;46.070;14.492;2023-06-26T01:21:23;8.63;;;6.93;;
74152;SDS011;62505;46.070;14.492;2023-06-26T01:23:58;9.35;;;6.90;;
74152;SDS011;62505;46.070;14.492;2023-06-26T01:26:35;8.60;;;6.55;;
74152;SDS011;62505;46.070;14.492;2023-06-26T01:29:04;8.65;;;6.80;;
74152;SDS011;62505;46.070;14.492;2023-06-26T01:31:34;10.02;;;6.80;;
74152;SDS011;62505;46.070;14.492;2023-06-26T01:34:01;10.02;;;7.03;;
74152;SDS011;62505;46.070;14.492;2023-06-26T01:36:29;7.25;;;6.00;;
74152;SDS011;62505;46.070;14.492;2023-06-26T01:38:56;8.52;;;6.68;;
74152;SDS011;62505;46.070;14.492;2023-06-26T01:41:22;9.77;;;6.75;;
74152;SDS011;62505;46.070;14.492;2023-06-26T01:44:03;10.77;;;6.68;;
74152;SDS011;62505;46.070;14.492;2023-06-26T01:46:39;9.20;;;7.30;;
74152;SDS011;62505;46.070;14.492;2023-06-26T01:49:12;9.75;;;6.32;;
74152;SDS011;62505;46.070;14.492;2023-06-26T01:51:46;8.85;;;7.00;;
74152;SDS011;62505;46.070;14.492;2023-06-26T01:54:18;9.05;;;6.85;;
74152;SDS011;62505;46.070;14.492;2023-06-26T01:56:49;9.77;;;6.88;;
74152;SDS011;62505;46.070;14.492;2023-06-26T01:59:20;8.20;;;6.47;;
74152;SDS011;62505;46.070;14.492;2023-06-26T02:01:48;10.63;;;7.30;;
74152;SDS011;62505;46.070;14.492;2023-06-26T02:04:15;9.85;;;7.00;;
74152;SDS011;62505;46.070;14.492;2023-06-26T02:06:42;8.52;;;6.68;;
74152;SDS011;62505;46.070;14.492;2023-06-26T02:09:09;10.15;;;7.60;;
74152;SDS011;62505;46.070;14.492;2023-06-26T02:11:35;9.02;;;6.90;;
74152;SDS011;62505;46.070;14.492;2023-06-26T02:14:02;8.88;;;6.65;;
74152;SDS011;62505;46.070;14.492;2023-06-26T02:16:30;8.25;;;6.80;;
74152;SDS011;62505;46.070;14.492;2023-06-26T02:18:58;10.63;;;7.15;;
74152;SDS011;62505;46.070;14.492;2023-06-26T02:21:24;8.68;;;6.78;;
74152;SDS011;62505;46.070;14.492;2023-06-26T02:23:51;7.80;;;6.57;;
74152;SDS011;62505;46.070;14.492;2023-06-26T02:26:18;8.95;;;7.05;;
74152;SDS011;62505;46.070;14.492;2023-06-26T02:28:45;9.60;;;7.10;;
74152;SDS011;62505;46.070;14.492;2023-06-26T02:31:12;8.68;;;6.88;;
74152;SDS011;62505;46.070;14.492;2023-06-26T02:33:40;8.27;;;6.95;;
74152;SDS011;62505;46.070;14.492;2023-06-26T02:36:10;7.65;;;6.47;;
74152;SDS011;62505;46.070;14.492;2023-06-26T02:38:37;7.82;;;6.63;;
74152;SDS011;62505;46.070;14.492;2023-06-26T02:41:04;7.55;;;6.63;;
74152;SDS011;62505;46.070;14.492;2023-06-26T02:43:30;9.95;;;6.82;;
74152;SDS011;62505;46.070;14.492;2023-06-26T02:45:57;10.60;;;7.28;;
74152;SDS011;62505;46.070;14.492;2023-06-26T02:48:24;9.10;;;6.20;;
74152;SDS011;62505;46.070;14.492;2023-06-26T02:50:52;9.60;;;7.38;;
74152;SDS011;62505;46.070;14.492;2023-06-26T02:53:19;10.82;;;7.53;;
74152;SDS011;62505;46.070;14.492;2023-06-26T02:55:46;8.60;;;6.57;;
74152;SDS011;62505;46.070;14.492;2023-06-26T02:58:13;8.85;;;7.15;;
74152;SDS011;62505;46.070;14.492;2023-06-26T03:00:40;7.82;;;6.63;;
74152;SDS011;62505;46.070;14.492;2023-06-26T03:03:08;8.27;;;6.72;;
74152;SDS011;62505;46.070;14.492;2023-06-26T03:05:35;10.55;;;7.18;;
74152;SDS011;62505;46.070;14.492;2023-06-26T03:08:03;9.70;;;7.03;;
74152;SDS011;62505;46.070;14.492;2023-06-26T03:10:31;10.15;;;7.53;;
74152;SDS011;62505;46.070;14.492;2023-06-26T03:12:57;8.88;;;6.70;;
74152;SDS011;62505;46.070;14.492;2023-06-26T03:15:24;10.00;;;7.40;;
74152;SDS011;62505;46.070;14.492;2023-06-26T03:17:52;7.68;;;6.68;;
74152;SDS011;62505;46.070;14.492;2023-06-26T03:20:18;10.35;;;6.63;;
74152;SDS011;62505;46.070;14.492;2023-06-26T03:22:45;8.57;;;6.78;;
74152;SDS011;62505;46.070;14.492;2023-06-26T03:25:13;9.50;;;6.78;;
74152;SDS011;62505;46.070;14.492;2023-06-26T03:27:40;10.25;;;6.63;;
74152;SDS011;62505;46.070;14.492;2023-06-26T03:30:07;9.15;;;6.85;;
74152;SDS011;62505;46.070;14.492;2023-06-26T03:32:35;9.52;;;6.88;;
74152;SDS011;62505;46.070;14.492;2023-06-26T03:35:02;8.70;;;7.13;;
74152;SDS011;62505;46.070;14.492;2023-06-26T03:37:29;15.00;;;7.00;;
74152;SDS011;62505;46.070;14.492;2023-06-26T03:39:56;9.85;;;6.90;;
74152;SDS011;62505;46.070;14.492;2023-06-26T03:42:24;10.40;;;6.70;;
74152;SDS011;62505;46.070;14.492;2023-06-26T03:44:51;10.77;;;7.28;;
74152;SDS011;62505;46.070;14.492;2023-06-26T03:47:18;11.32;;;7.32;;
74152;SDS011;62505;46.070;14.492;2023-06-26T03:49:44;8.88;;;7.38;;
74152;SDS011;62505;46.070;14.492;2023-06-26T03:52:11;11.48;;;6.70;;
74152;SDS011;62505;46.070;14.492;2023-06-26T03:54:38;9.48;;;6.72;;
74152;SDS011;62505;46.070;14.492;2023-06-26T03:57:05;8.75;;;6.75;;
74152;SDS011;62505;46.070;14.492;2023-06-26T03:59:33;9.32;;;6.95;;
74152;SDS011;62505;46.070;14.492;2023-06-26T04:02:00;9.30;;;6.82;;
74152;SDS011;62505;46.070;14.492;2023-06-26T04:04:27;8.40;;;7.25;;
74152;SDS011;62505;46.070;14.492;2023-06-26T04:06:55;8.40;;;6.85;;
74152;SDS011;62505;46.070;14.492;2023-06-26T04:09:22;9.60;;;7.35;;
74152;SDS011;62505;46.070;14.492;2023-06-26T04:11:49;7.85;;;6.65;;
74152;SDS011;62505;46.070;14.492;2023-06-26T04:14:15;9.88;;;7.57;;
74152;SDS011;62505;46.070;14.492;2023-06-26T04:16:44;10.23;;;7.35;;
74152;SDS011;62505;46.070;14.492;2023-06-26T04:19:11;10.00;;;6.97;;
74152;SDS011;62505;46.070;14.492;2023-06-26T04:21:38;8.80;;;6.82;;
74152;SDS011;62505;46.070;14.492;2023-06-26T04:24:05;7.90;;;6.47;;
74152;SDS011;62505;46.070;14.492;2023-06-26T04:26:32;8.27;;;6.80;;
74152;SDS011;62505;46.070;14.492;2023-06-26T04:28:59;9.57;;;7.30;;
74152;SDS011;62505;46.070;14.492;2023-06-26T04:31:26;8.15;;;6.55;;
74152;SDS011;62505;46.070;14.492;2023-06-26T04:33:54;8.90;;;6.68;;
74152;SDS011;62505;46.070;14.492;2023-06-26T04:36:22;8.43;;;6.75;;
74152;SDS011;62505;46.070;14.492;2023-06-26T04:38:53;9.25;;;7.07;;
74152;SDS011;62505;46.070;14.492;2023-06-26T04:41:20;8.32;;;7.10;;
74152;SDS011;62505;46.070;14.492;2023-06-26T04:43:47;9.27;;;6.93;;
74152;SDS011;62505;46.070;14.492;2023-06-26T04:46:14;9.00;;;7.05;;
74152;SDS011;62505;46.070;14.492;2023-06-26T04:48:41;9.85;;;6.88;;
74152;SDS011;62505;46.070;14.492;2023-06-26T04:51:11;10.55;;;7.35;;
74152;SDS011;62505;46.070;14.492;2023-06-26T04:53:37;9.65;;;6.93;;
74152;SDS011;62505;46.070;14.492;2023-06-26T04:56:04;9.80;;;7.50;;
74152;SDS011;62505;46.070;14.492;2023-06-26T04:58:31;9.60;;;7.07;;
74152;SDS011;62505;46.070;14.492;2023-06-26T05:00:58;8.82;;;6.95;;
74152;SDS011;62505;46.070;14.492;2023-06-26T05:03:25;10.75;;;7.22;;
74152;SDS011;62505;46.070;14.492;2023-06-26T05:05:52;9.90;;;7.22;;
74152;SDS011;62505;46.070;14.492;2023-06-26T05:08:21;8.52;;;6.57;;
74152;SDS011;62505;46.070;14.492;2023-06-26T05:10:51;9.27;;;6.68;;
74152;SDS011;62505;46.070;14.492;2023-06-26T05:13:22;10.07;;;6.63;;
74152;SDS011;62505;46.070;14.492;2023-06-26T05:15:49;7.43;;;6.13;;
74152;SDS011;62505;46.070;14.492;2023-06-26T05:18:16;10.40;;;7.18;;
74152;SDS011;62505;46.070;14.492;2023-06-26T05:20:43;9.25;;;6.57;;
74152;SDS011;62505;46.070;14.492;2023-06-26T05:23:11;11.70;;;7.13;;
74152;SDS011;62505;46.070;14.492;2023-06-26T05:25:40;8.77;;;6.68;;
74152;SDS011;62505;46.070;14.492;2023-06-26T05:28:07;10.70;;;7.15;;
74152;SDS011;62505;46.070;14.492;2023-06-26T05:30:35;10.50;;;7.10;;
74152;SDS011;62505;46.070;14.492;2023-06-26T05:33:03;8.88;;;7.00;;
74152;SDS011;62505;46.070;14.492;2023-06-26T05:35:31;10.60;;;7.03;;
74152;SDS011;62505;46.070;14.492;2023-06-26T05:37:58;10.73;;;7.15;;
74152;SDS011;62505;46.070;14.492;2023-06-26T05:40:26;14.68;;;7.13;;
74152;SDS011;62505;46.070;14.492;2023-06-26T05:42:55;11.60;;;7.32;;
74152;SDS011;62505;46.070;14.492;2023-06-26T05:45:22;10.13;;;6.72;;
74152;SDS011;62505;46.070;14.492;2023-06-26T05:47:49;8.88;;;7.00;;
74152;SDS011;62505;46.070;14.492;2023-06-26T05:50:16;8.00;;;6.78;;
74152;SDS011;62505;46.070;14.492;2023-06-26T05:52:44;9.60;;;7.15;;
74152;SDS011;62505;46.070;14.492;2023-06-26T05:55:12;9.77;;;7.15;;
74152;SDS011;62505;46.070;14.492;2023-06-26T05:57:39;9.93;;;7.20;;
74152;SDS011;62505;46.070;14.492;2023-06-26T06:00:09;9.55;;;7.28;;
74152;SDS011;62505;46.070;14.492;2023-06-26T06:02:37;13.70;;;7.15;;
74152;SDS011;62505;46.070;14.492;2023-06-26T06:05:05;9.70;;;7.38;;
74152;SDS011;62505;46.070;14.492;2023-06-26T06:07:32;11.95;;;7.68;;
74152;SDS011;62505;46.070;14.492;2023-06-26T06:10:00;8.13;;;6.32;;
74152;SDS011;62505;46.070;14.492;2023-06-26T06:12:28;10.38;;;7.13;;
74152;SDS011;62505;46.070;14.492;2023-06-26T06:14:55;10.00;;;6.68;;
74152;SDS011;62505;46.070;14.492;2023-06-26T06:17:24;12.02;;;7.45;;
74152;SDS011;62505;46.070;14.492;2023-06-26T06:19:51;11.00;;;7.18;;
74152;SDS011;62505;46.070;14.492;2023-06-26T06:22:17;10.98;;;7.10;;
74152;SDS011;62505;46.070;14.492;2023-06-26T06:24:44;9.80;;;7.35;;
74152;SDS011;62505;46.070;14.492;2023-06-26T06:27:11;10.27;;;7.32;;
74152;SDS011;62505;46.070;14.492;2023-06-26T06:29:38;13.80;;;7.82;;
74152;SDS011;62505;46.070;14.492;2023-06-26T06:32:05;13.85;;;7.30;;
74152;SDS011;62505;46.070;14.492;2023-06-26T06:34:34;12.68;;;7.88;;
74152;SDS011;62505;46.070;14.492;2023-06-26T06:37:01;12.35;;;7.88;;
74152;SDS011;62505;46.070;14.492;2023-06-26T06:39:28;10.00;;;7.63;;
74152;SDS011;62505;46.070;14.492;2023-06-26T06:41:55;10.90;;;6.95;;
74152;SDS011;62505;46.070;14.492;2023-06-26T06:44:22;11.00;;;7.97;;
74152;SDS011;62505;46.070;14.492;2023-06-26T06:46:49;10.52;;;8.02;;
74152;SDS011;62505;46.070;14.492;2023-06-26T06:49:16;11.20;;;8.45;;
74152;SDS011;62505;46.070;14.492;2023-06-26T06:51:44;9.85;;;8.02;;
74152;SDS011;62505;46.070;14.492;2023-06-26T06:54:11;11.30;;;7.60;;
74152;SDS011;62505;46.070;14.492;2023-06-26T06:56:38;11.95;;;7.88;;
74152;SDS011;62505;46.070;14.492;2023-06-26T06:59:04;9.52;;;7.40;;
74152;SDS011;62505;46.070;14.492;2023-06-26T07:01:31;14.48;;;7.72;;
74152;SDS011;62505;46.070;14.492;2023-06-26T07:03:59;10.32;;;7.78;;
74152;SDS011;62505;46.070;14.492;2023-06-26T07:06:25;12.90;;;8.20;;
74152;SDS011;62505;46.070;14.492;2023-06-26T07:08:54;9.52;;;7.50;;
74152;SDS011;62505;46.070;14.492;2023-06-26T07:11:20;9.05;;;7.30;;
74152;SDS011;62505;46.070;14.492;2023-06-26T07:13:47;15.63;;;7.88;;
74152;SDS011;62505;46.070;14.492;2023-06-26T07:16:14;13.02;;;8.02;;
74152;SDS011;62505;46.070;14.492;2023-06-26T07:18:41;10.88;;;7.82;;
74152;SDS011;62505;46.070;14.492;2023-06-26T07:21:08;11.35;;;8.18;;
74152;SDS011;62505;46.070;14.492;2023-06-26T07:23:35;10.48;;;7.53;;
74152;SDS011;62505;46.070;14.492;2023-06-26T07:26:03;11.35;;;7.68;;
74152;SDS011;62505;46.070;14.492;2023-06-26T07:28:30;10.13;;;7.78;;
74152;SDS011;62505;46.070;14.492;2023-06-26T07:30:57;11.77;;;7.53;;
74152;SDS011;62505;46.070;14.492;2023-06-26T07:33:24;9.80;;;7.10;;
74152;SDS011;62505;46.070;14.492;2023-06-26T07:35:50;11.65;;;8.02;;
74152;SDS011;62505;46.070;14.492;2023-06-26T07:38:17;11.07;;;7.72;;
74152;SDS011;62505;46.070;14.492;2023-06-26T07:40:44;12.02;;;7.15;;
74152;SDS011;62505;46.070;14.492;2023-06-26T07:43:12;13.95;;;8.07;;
74152;SDS011;62505;46.070;14.492;2023-06-26T07:45:39;9.73;;;7.57;;
74152;SDS011;62505;46.070;14.492;2023-06-26T07:48:06;10.10;;;7.20;;
74152;SDS011;62505;46.070;14.492;2023-06-26T07:50:34;10.18;;;7.00;;
74152;SDS011;62505;46.070;14.492;2023-06-26T07:53:00;9.50;;;7.20;;
74152;SDS011;62505;46.070;14.492;2023-06-26T07:55:27;10.57;;;7.78;;
74152;SDS011;62505;46.070;14.492;2023-06-26T07:57:55;10.10;;;7.63;;
74152;SDS011;62505;46.070;14.492;2023-06-26T08:00:23;10.63;;;7.85;;
74152;SDS011;62505;46.070;14.492;2023-06-26T08:02:51;10.55;;;7.22;;
74152;SDS011;62505;46.070;14.492;2023-06-26T08:05:18;9.93;;;7.55;;
74152;SDS011;62505;46.070;14.492;2023-06-26T08:07:45;10.45;;;7.63;;
74152;SDS011;62505;46.070;14.492;2023-06-26T08:10:12;11.38;;;7.30;;
74152;SDS011;62505;46.070;14.492;2023-06-26T08:12:40;8.00;;;6.45;;
74152;SDS011;62505;46.070;14.492;2023-06-26T08:15:08;10.25;;;7.85;;
74152;SDS011;62505;46.070;14.492;2023-06-26T08:17:36;9.70;;;6.90;;
74152;SDS011;62505;46.070;14.492;2023-06-26T08:20:04;8.98;;;6.45;;
74152;SDS011;62505;46.070;14.492;2023-06-26T08:22:33;9.65;;;6.95;;
74152;SDS011;62505;46.070;14.492;2023-06-26T08:25:00;9.82;;;7.50;;
74152;SDS011;62505;46.070;14.492;2023-06-26T08:27:27;9.68;;;7.22;;
74152;SDS011;62505;46.070;14.492;2023-06-26T08:29:53;9.00;;;7.25;;
74152;SDS011;62505;46.070;14.492;2023-06-26T08:32:20;10.02;;;7.60;;
74152;SDS011;62505;46.070;14.492;2023-06-26T08:34:48;10.38;;;6.93;;
74152;SDS011;62505;46.070;14.492;2023-06-26T08:37:15;9.50;;;7.10;;
74152;SDS011;62505;46.070;14.492;2023-06-26T08:39:42;10.05;;;7.03;;
74152;SDS011;62505;46.070;14.492;2023-06-26T08:42:09;11.00;;;7.53;;
74152;SDS011;62505;46.070;14.492;2023-06-26T08:44:36;11.82;;;7.05;;
74152;SDS011;62505;46.070;14.492;2023-06-26T08:47:03;7.80;;;6.45;;
74152;SDS011;62505;46.070;14.492;2023-06-26T08:49:34;8.52;;;7.03;;
74152;SDS011;62505;46.070;14.492;2023-06-26T08:52:10;9.63;;;7.32;;
74152;SDS011;62505;46.070;14.492;2023-06-26T08:54:45;9.43;;;7.30;;
74152;SDS011;62505;46.070;14.492;2023-06-26T08:57:14;9.73;;;6.85;;
74152;SDS011;62505;46.070;14.492;2023-06-26T08:59:44;9.68;;;7.18;;
74152;SDS011;62505;46.070;14.492;2023-06-26T09:02:12;9.57;;;7.88;;
74152;SDS011;62505;46.070;14.492;2023-06-26T09:04:39;11.30;;;6.82;;
74152;SDS011;62505;46.070;14.492;2023-06-26T09:07:07;9.45;;;6.50;;
74152;SDS011;62505;46.070;14.492;2023-06-26T09:09:35;8.70;;;7.07;;
74152;SDS011;62505;46.070;14.492;2023-06-26T09:12:03;11.00;;;7.32;;
74152;SDS011;62505;46.070;14.492;2023-06-26T09:14:30;7.70;;;6.32;;
74152;SDS011;62505;46.070;14.492;2023-06-26T09:16:57;10.77;;;7.10;;
74152;SDS011;62505;46.070;14.492;2023-06-26T09:19:24;8.18;;;6.68;;
74152;SDS011;62505;46.070;14.492;2023-06-26T09:21:52;10.27;;;7.15;;
74152;SDS011;62505;46.070;14.492;2023-06-26T09:24:20;8.15;;;6.68;;
74152;SDS011;62505;46.070;14.492;2023-06-26T09:26:50;7.82;;;6.72;;
74152;SDS011;62505;46.070;14.492;2023-06-26T09:29:17;8.18;;;6.45;;
74152;SDS011;62505;46.070;14.492;2023-06-26T09:31:45;7.20;;;5.82;;
74152;SDS011;62505;46.070;14.492;2023-06-26T09:34:12;8.88;;;6.75;;
74152;SDS011;62505;46.070;14.492;2023-06-26T09:36:39;10.32;;;7.07;;
74152;SDS011;62505;46.070;14.492;2023-06-26T09:39:10;9.07;;;7.35;;
74152;SDS011;62505;46.070;14.492;2023-06-26T09:41:37;8.55;;;6.50;;
74152;SDS011;62505;46.070;14.492;2023-06-26T09:44:05;14.23;;;6.88;;
74152;SDS011;62505;46.070;14.492;2023-06-26T09:46:33;10.93;;;6.80;;
74152;SDS011;62505;46.070;14.492;2023-06-26T09:49:03;10.98;;;6.53;;
74152;SDS011;62505;46.070;14.492;2023-06-26T09:51:31;11.55;;;6.70;;
74152;SDS011;62505;46.070;14.492;2023-06-26T09:53:59;8.30;;;6.82;;
74152;SDS011;62505;46.070;14.492;2023-06-26T09:56:26;8.95;;;6.15;;
74152;SDS011;62505;46.070;14.492;2023-06-26T09:58:54;11.10;;;6.85;;
74152;SDS011;62505;46.070;14.492;2023-06-26T10:01:24;10.98;;;6.95;;
74152;SDS011;62505;46.070;14.492;2023-06-26T10:03:51;14.02;;;6.95;;
74152;SDS011;62505;46.070;14.492;2023-06-26T10:06:19;8.18;;;6.18;;
74152;SDS011;62505;46.070;14.492;2023-06-26T10:08:48;8.48;;;6.38;;
74152;SDS011;62505;46.070;14.492;2023-06-26T10:11:16;8.23;;;7.07;;
74152;SDS011;62505;46.070;14.492;2023-06-26T10:13:45;9.35;;;7.13;;
74152;SDS011;62505;46.070;14.492;2023-06-26T10:16:17;9.48;;;6.45;;
74152;SDS011;62505;46.070;14.492;2023-06-26T10:18:50;8.98;;;6.55;;
74152;SDS011;62505;46.070;14.492;2023-06-26T10:21:19;10.02;;;7.22;;
74152;SDS011;62505;46.070;14.492;2023-06-26T10:23:48;8.18;;;6.20;;
74152;SDS011;62505;46.070;14.492;2023-06-26T10:26:17;9.68;;;7.00;;
74152;SDS011;62505;46.070;14.492;2023-06-26T10:28:47;10.48;;;6.45;;
74152;SDS011;62505;46.070;14.492;2023-06-26T10:31:17;10.30;;;6.82;;
74152;SDS011;62505;46.070;14.492;2023-06-26T10:33:47;10.77;;;7.07;;
74152;SDS011;62505;46.070;14.492;2023-06-26T10:36:16;8.68;;;6.57;;
74152;SDS011;62505;46.070;14.492;2023-06-26T10:38:51;8.20;;;5.90;;
74152;SDS011;62505;46.070;14.492;2023-06-26T10:41:19;10.10;;;7.03;;
74152;SDS011;62505;46.070;14.492;2023-06-26T10:43:51;9.60;;;6.32;;
74152;SDS011;62505;46.070;14.492;2023-06-26T10:46:32;8.13;;;6.07;;
74152;SDS011;62505;46.070;14.492;2023-06-26T10:49:01;9.13;;;6.63;;
74152;SDS011;62505;46.070;14.492;2023-06-26T10:51:28;9.20;;;6.20;;
74152;SDS011;62505;46.070;14.492;2023-06-26T10:53:55;10.50;;;6.72;;
74152;SDS011;62505;46.070;14.492;2023-06-26T10:59:13;9.10;;;6.32;;
74152;SDS011;62505;46.070;14.492;2023-06-26T11:01:42;9.45;;;6.53;;
74152;SDS011;62505;46.070;14.492;2023-06-26T11:04:12;9.25;;;6.55;;
74152;SDS011;62505;46.070;14.492;2023-06-26T11:06:41;8.45;;;6.20;;
74152;SDS011;62505;46.070;14.492;2023-06-26T11:09:13;9.05;;;7.03;;
74152;SDS011;62505;46.070;14.492;2023-06-26T11:11:59;7.00;;;5.85;;
74152;SDS011;62505;46.070;14.492;2023-06-26T11:14:32;7.53;;;6.07;;
74152;SDS011;62505;46.070;14.492;2023-06-26T11:17:02;7.22;;;6.20;;
74152;SDS011;62505;46.070;14.492;2023-06-26T11:19:31;9.57;;;6.18;;
74152;SDS011;62505;46.070;14.492;2023-06-26T11:21:59;7.30;;;6.05;;
74152;SDS011;62505;46.070;14.492;2023-06-26T11:24:30;9.43;;;6.18;;
74152;SDS011;62505;46.070;14.492;2023-06-26T11:27:02;8.95;;;6.53;;
74152;SDS011;62505;46.070;14.492;2023-06-26T11:29:31;7.18;;;5.85;;
74152;SDS011;62505;46.070;14.492;2023-06-26T11:31:59;8.15;;;6.65;;
74152;SDS011;62505;46.070;14.492;2023-06-26T11:34:32;8.88;;;6.10;;
74152;SDS011;62505;46.070;14.492;2023-06-26T11:37:00;9.02;;;6.57;;
74152;SDS011;62505;46.070;14.492;2023-06-26T11:39:30;9.00;;;6.35;;
74152;SDS011;62505;46.070;14.492;2023-06-26T11:41:56;7.22;;;5.85;;
74152;SDS011;62505;46.070;14.492;2023-06-26T11:44:25;8.10;;;6.28;;
74152;SDS011;62505;46.070;14.492;2023-06-26T11:46:56;7.63;;;6.07;;
74152;SDS011;62505;46.070;14.492;2023-06-26T11:49:23;7.68;;;6.18;;
74152;SDS011;62505;46.070;14.492;2023-06-26T11:51:53;8.23;;;6.10;;
74152;SDS011;62505;46.070;14.492;2023-06-26T11:54:23;6.57;;;5.85;;
74152;SDS011;62505;46.070;14.492;2023-06-26T11:56:51;7.95;;;6.10;;
74152;SDS011;62505;46.070;14.492;2023-06-26T11:59:21;7.25;;;5.70;;
74152;SDS011;62505;46.070;14.492;2023-06-26T12:01:49;7.85;;;6.30;;
74152;SDS011;62505;46.070;14.492;2023-06-26T12:04:16;7.68;;;5.60;;
74152;SDS011;62505;46.070;14.492;2023-06-26T12:06:45;7.65;;;5.72;;
74152;SDS011;62505;46.070;14.492;2023-06-26T12:09:14;7.13;;;5.55;;
74152;SDS011;62505;46.070;14.492;2023-06-26T12:11:44;7.60;;;5.90;;
74152;SDS011;62505;46.070;14.492;2023-06-26T12:14:14;8.43;;;5.65;;
74152;SDS011;62505;46.070;14.492;2023-06-26T12:16:41;6.22;;;5.50;;
74152;SDS011;62505;46.070;14.492;2023-06-26T12:19:09;8.23;;;5.75;;
74152;SDS011;62505;46.070;14.492;2023-06-26T12:21:45;7.68;;;5.93;;
74152;SDS011;62505;46.070;14.492;2023-06-26T12:24:19;7.40;;;5.90;;
74152;SDS011;62505;46.070;14.492;2023-06-26T12:26:48;6.68;;;5.63;;
74152;SDS011;62505;46.070;14.492;2023-06-26T12:29:19;6.75;;;5.43;;
74152;SDS011;62505;46.070;14.492;2023-06-26T12:31:48;6.97;;;5.25;;
74152;SDS011;62505;46.070;14.492;2023-06-26T12:34:18;8.57;;;6.00;;
74152;SDS011;62505;46.070;14.492;2023-06-26T12:36:46;7.22;;;5.80;;
74152;SDS011;62505;46.070;14.492;2023-06-26T12:39:15;7.45;;;5.80;;
74152;SDS011;62505;46.070;14.492;2023-06-26T12:41:47;7.45;;;6.03;;
74152;SDS011;62505;46.070;14.492;2023-06-26T12:44:22;7.22;;;6.05;;
74152;SDS011;62505;46.070;14.492;2023-06-26T12:46:53;7.60;;;5.55;;
74152;SDS011;62505;46.070;14.492;2023-06-26T12:49:29;7.53;;;5.90;;
74152;SDS011;62505;46.070;14.492;2023-06-26T12:51:57;6.75;;;5.25;;
74152;SDS011;62505;46.070;14.492;2023-06-26T12:54:24;7.40;;;5.63;;
74152;SDS011;62505;46.070;14.492;2023-06-26T12:56:53;6.65;;;5.55;;
74152;SDS011;62505;46.070;14.492;2023-06-26T12:59:20;8.35;;;6.28;;
74152;SDS011;62505;46.070;14.492;2023-06-26T13:01:46;6.18;;;5.57;;
74152;SDS011;62505;46.070;14.492;2023-06-26T13:04:14;6.82;;;5.03;;
74152;SDS011;62505;46.070;14.492;2023-06-26T13:06:41;9.13;;;5.20;;
74152;SDS011;62505;46.070;14.492;2023-06-26T13:09:07;7.68;;;5.15;;
74152;SDS011;62505;46.070;14.492;2023-06-26T13:11:35;7.38;;;5.47;;
74152;SDS011;62505;46.070;14.492;2023-06-26T13:14:04;6.32;;;5.55;;
74152;SDS011;62505;46.070;14.492;2023-06-26T13:16:31;7.10;;;5.47;;
74152;SDS011;62505;46.070;14.492;2023-06-26T13:18:58;6.40;;;5.32;;
74152;SDS011;62505;46.070;14.492;2023-06-26T13:21:26;7.00;;;5.43;;
74152;SDS011;62505;46.070;14.492;2023-06-26T13:23:54;6.78;;;5.45;;
74152;SDS011;62505;46.070;14.492;2023-06-26T13:26:21;7.10;;;5.63;;
74152;SDS011;62505;46.070;14.492;2023-06-26T13:28:48;6.82;;;5.43;;
74152;SDS011;62505;46.070;14.492;2023-06-26T13:31:16;7.22;;;5.38;;
74152;SDS011;62505;46.070;14.492;2023-06-26T13:33:44;7.05;;;6.00;;
74152;SDS011;62505;46.070;14.492;2023-06-26T13:36:13;5.80;;;4.93;;
74152;SDS011;62505;46.070;14.492;2023-06-26T13:38:40;7.95;;;5.75;;
74152;SDS011;62505;46.070;14.492;2023-06-26T13:41:07;7.25;;;5.50;;
74152;SDS011;62505;46.070;14.492;2023-06-26T13:43:34;7.03;;;5.78;;
74152;SDS011;62505;46.070;14.492;2023-06-26T13:46:01;6.70;;;4.70;;
74152;SDS011;62505;46.070;14.492;2023-06-26T13:48:29;6.40;;;5.28;;
74152;SDS011;62505;46.070;14.492;2023-06-26T13:50:58;8.57;;;5.60;;
74152;SDS011;62505;46.070;14.492;2023-06-26T13:53:25;8.30;;;5.63;;
74152;SDS011;62505;46.070;14.492;2023-06-26T13:55:52;11.50;;;5.57;;
74152;SDS011;62505;46.070;14.492;2023-06-26T13:58:18;10.27;;;5.65;;
74152;SDS011;62505;46.070;14.492;2023-06-26T14:00:47;6.95;;;5.63;;
74152;SDS011;62505;46.070;14.492;2023-06-26T14:03:14;10.32;;;5.75;;
74152;SDS011;62505;46.070;14.492;2023-06-26T14:05:44;7.13;;;5.15;;
74152;SDS011;62505;46.070;14.492;2023-06-26T14:08:11;6.63;;;4.70;;
74152;SDS011;62505;46.070;14.492;2023-06-26T14:10:38;7.50;;;5.28;;
74152;SDS011;62505;46.070;14.492;2023-06-26T14:13:05;7.15;;;4.90;;
74152;SDS011;62505;46.070;14.492;2023-06-26T14:15:34;5.95;;;5.28;;
74152;SDS011;62505;46.070;14.492;2023-06-26T14:18:01;8.48;;;5.80;;
74152;SDS011;62505;46.070;14.492;2023-06-26T14:20:29;5.60;;;4.65;;
74152;SDS011;62505;46.070;14.492;2023-06-26T14:22:59;8.02;;;5.25;;
74152;SDS011;62505;46.070;14.492;2023-06-26T14:25:27;6.95;;;5.57;;
74152;SDS011;62505;46.070;14.492;2023-06-26T14:27:54;8.98;;;6.07;;
74152;SDS011;62505;46.070;14.492;2023-06-26T14:30:21;7.30;;;5.05;;
74152;SDS011;62505;46.070;14.492;2023-06-26T14:32:48;6.45;;;5.40;;
74152;SDS011;62505;46.070;14.492;2023-06-26T14:35:15;6.85;;;5.55;;
74152;SDS011;62505;46.070;14.492;2023-06-26T14:37:42;7.55;;;5.55;;